Pride — ZDFD7 — position and weather

sailwx.info

Track history (hours):
 
Tides and Currents Weather Stations Pressure Air Temp Water Temp Dewpoint Dewpoint Depression Visibility Wind Speed Wind Dir Waves Ship Positions

Pride

Last reported at 2016-Aug-30 19:12 UTC. Time now 2016-Sep-01 01:58 UTC.
Position N 59°35' E 022°59'.

Length 88 m; draft 5 m.

Type: Cargo ship. MMSI: 236166000.

Date/timePositionNaut miles runAvg speedWind from/ knotsBaromVisibWave heightAir tempDewpointWater temp
2016-Aug-30 19:12N 59°35' E 022°59'7 9.1
2016-Aug-30 18:24N 59°37' E 023°13'8 8.7
2016-Aug-30 17:32N 59°39' E 023°27'9 8.8
2016-Aug-30 16:33N 59°42' E 023°44'81 9.6
2016-Aug-30 08:06N 59°60' E 026°21'5 9.5
2016-Aug-30 07:32N 60°01' E 026°31'28 9.1
2016-Aug-30 04:27N 60°06' E 027°26'9 9.7
2016-Aug-30 03:34N 60°11' E 027°41'11 9.4
2016-Aug-30 02:22N 60°10' E 028°04'8 9.6
2016-Aug-30 01:33N 60°07' E 028°19'10 9.5
2016-Aug-30 00:33N 60°03' E 028°36'10 9.6
2016-Aug-29 23:30N 60°03' E 028°56'22 9.4
2016-Aug-29 21:10N 59°60' E 029°39'5 8.8
2016-Aug-29 20:33N 59°58' E 029°49'9 9.2
2016-Aug-29 19:34N 59°54' E 030°06'4 3.4
2016-Aug-29 18:32N 59°53' E 030°13'0 0.0
2016-Aug-29 17:33N 59°53' E 030°13'0 0.0
2016-Aug-29 16:33N 59°53' E 030°13'0 0.0
2016-Aug-29 15:30N 59°53' E 030°13'0 0.0
2016-Aug-29 14:28N 59°53' E 030°13'0 0.0
2016-Aug-29 13:32N 59°53' E 030°13'0 0.0
2016-Aug-29 12:31N 59°53' E 030°13'0 0.0
2016-Aug-29 11:33N 59°53' E 030°13'0 0.0
2016-Aug-29 10:31N 59°53' E 030°13'0 0.0
2016-Aug-29 09:33N 59°53' E 030°13'0 0.0
2016-Aug-29 08:31N 59°53' E 030°13'0 0.0
2016-Aug-29 07:32N 59°53' E 030°13'0 0.0
2016-Aug-29 06:31N 59°53' E 030°13'0 0.0
2016-Aug-29 05:33N 59°53' E 030°13'0 0.0
2016-Aug-29 04:32N 59°53' E 030°13'0 0.0
2016-Aug-29 03:32N 59°53' E 030°13'0 0.0
2016-Aug-29 02:33N 59°53' E 030°13'0 0.0
2016-Aug-29 01:33N 59°53' E 030°13'0 0.0
2016-Aug-29 00:31N 59°53' E 030°13'0 0.0
2016-Aug-28 23:32N 59°53' E 030°13'0 0.0
2016-Aug-28 22:32N 59°53' E 030°13'0 0.0
2016-Aug-28 21:33N 59°53' E 030°13'0 0.0
2016-Aug-28 20:30N 59°53' E 030°13'0 0.0
2016-Aug-28 19:33N 59°53' E 030°13'0 0.0
2016-Aug-28 18:32N 59°53' E 030°13'0 0.0
2016-Aug-28 17:28N 59°53' E 030°13'0 0.0
2016-Aug-28 16:30N 59°53' E 030°13'0 0.0
2016-Aug-28 15:29N 59°53' E 030°13'0 0.0
2016-Aug-28 14:30N 59°53' E 030°13'0 0.0
2016-Aug-28 13:29N 59°53' E 030°13'0 0.0
2016-Aug-28 12:32N 59°53' E 030°13'0 0.0
2016-Aug-28 11:31N 59°53' E 030°13'0 0.0
2016-Aug-28 10:32N 59°53' E 030°13'0 0.0
2016-Aug-28 09:28N 59°53' E 030°13'0 0.0
2016-Aug-28 08:26N 59°53' E 030°13'0 0.0
2016-Aug-28 07:28N 59°53' E 030°13'0 0.0
2016-Aug-28 06:26N 59°53' E 030°13'0 0.0
2016-Aug-28 05:27N 59°53' E 030°13'0 0.0
2016-Aug-28 04:33N 59°53' E 030°13'0 0.0
2016-Aug-28 03:33N 59°53' E 030°13'0 0.0
2016-Aug-28 02:32N 59°53' E 030°13'0 0.0
2016-Aug-28 01:32N 59°53' E 030°13'0 0.0
2016-Aug-28 00:32N 59°53' E 030°13'0 0.0
2016-Aug-27 23:32N 59°53' E 030°13'0 0.0
2016-Aug-27 22:32N 59°53' E 030°13'0 0.0
2016-Aug-27 21:33N 59°53' E 030°13'0 0.0
2016-Aug-27 20:33N 59°53' E 030°13'0 0.0
2016-Aug-27 19:33N 59°53' E 030°13'0 0.0
2016-Aug-27 18:33N 59°53' E 030°13'0 0.0
2016-Aug-27 17:33N 59°53' E 030°13'0 0.0
2016-Aug-27 16:32N 59°53' E 030°13'0 0.0
2016-Aug-27 15:32N 59°53' E 030°13'4 4.4
2016-Aug-27 14:33N 59°54' E 030°04'10 9.8
2016-Aug-27 13:32N 59°59' E 029°46'20 2.3
2016-Aug-27 04:33N 60°02' E 029°06'9 8.7
2016-Aug-27 03:33N 60°02' E 028°49'9 8.7
2016-Aug-27 02:33N 60°02' E 028°31'8 8.0
2016-Aug-27 01:33N 60°06' E 028°17'8 8.2
2016-Aug-27 00:33N 60°09' E 028°02'8 8.3
2016-Aug-26 23:33N 60°10' E 027°45'9 9.1
2016-Aug-26 22:33N 60°06' E 027°30'9 8.9
2016-Aug-26 21:33N 60°01' E 027°14'10 8.2
2016-Aug-26 20:20N 59°58' E 026°55'7 8.6
2016-Aug-26 19:30N 59°59' E 026°41'12 8.4
2016-Aug-26 18:08N 59°57' E 026°18'51 9.1
2016-Aug-26 12:31N 59°45' E 024°39'19 8.9
2016-Aug-26 10:21N 59°40' E 024°03'7 8.7
2016-Aug-26 09:34N 59°38' E 023°50'9 9.0
2016-Aug-26 08:33N 59°34' E 023°33'214 8.6
2016-Aug-25 07:32N 56°22' E 020°36'9 9.4
2016-Aug-25 06:33N 56°12' E 020°37'18 9.2
2016-Aug-25 04:34N 55°55' E 020°45'10 9.9
2016-Aug-25 03:34N 55°47' E 020°56'7 7.5
2016-Aug-25 02:34N 55°43' E 021°07'0 0.0
2016-Aug-25 01:34N 55°43' E 021°07'0 0.0
2016-Aug-25 00:33N 55°43' E 021°07'0 0.0
2016-Aug-24 23:33N 55°43' E 021°07'0 0.0
2016-Aug-24 22:33N 55°43' E 021°07'0 0.0
2016-Aug-24 21:32N 55°43' E 021°07'0 0.0
2016-Aug-24 20:33N 55°43' E 021°07'0 0.0
2016-Aug-24 19:32N 55°43' E 021°07'0 0.0
2016-Aug-24 16:29N 55°43' E 021°07'0 0.0
2016-Aug-24 15:14N 55°43' E 021°07'0 0.0
2016-Aug-24 14:33N 55°43' E 021°07'75 5.4
2016-Aug-24 00:33N 55°37' E 018°54'9 9.6
2016-Aug-23 23:33N 55°37' E 018°38'11 9.5
2016-Aug-23 22:22N 55°35' E 018°18'8 9.8
2016-Aug-23 21:33N 55°34' E 018°04'1110.5
2016-Aug-23 20:33N 55°33' E 017°45'6110.0
2016-Aug-23 14:29N 55°27' E 015°58'910.0
2016-Aug-23 13:33N 55°26' E 015°42'1010.0
2016-Aug-23 12:34N 55°25' E 015°25'10 9.8
2016-Aug-23 11:34N 55°24' E 015°07'10 9.8
2016-Aug-23 10:34N 55°23' E 014°50'9 9.3
2016-Aug-23 09:33N 55°19' E 014°35'9 9.4
2016-Aug-23 08:33N 55°12' E 014°25'9 9.0
2016-Aug-23 07:33N 55°09' E 014°10'4010.0
2016-Aug-23 03:33N 55°14' E 013°00'10 9.6
2016-Aug-23 02:33N 55°17' E 012°44'7 7.5
2016-Aug-23 01:34N 55°24' E 012°39'9 9.3
2016-Aug-23 00:34N 55°33' E 012°42'9 9.2
2016-Aug-22 23:33N 55°42' E 012°41'9 9.1
2016-Aug-22 22:34N 55°51' E 012°41'9 9.2
2016-Aug-22 21:34N 55°60' E 012°38'7 7.3
2016-Aug-22 20:34N 56°06' E 012°32'9 9.1
2016-Aug-22 19:34N 56°11' E 012°18'1010.2
2016-Aug-22 18:33N 56°10' E 011°59'97 3.3
2016-Aug-21 13:10N 54°55' E 010°11'610.2
2016-Aug-21 12:32N 54°49' E 010°13'23 9.3
2016-Aug-21 10:06N 54°26' E 010°14'5 9.4
2016-Aug-21 09:33N 54°22' E 010°09'4 4.1
2016-Aug-21 08:32N 54°22' E 010°02'30 5.7
2016-Aug-21 03:15N 54°05' E 009°19'6 8.6
2016-Aug-21 02:33N 53°59' E 009°17'6 5.5
2016-Aug-21 01:29N 53°55' E 009°11'0 0.0
2016-Aug-21 00:29N 53°55' E 009°11'0 0.0
2016-Aug-20 23:32N 53°55' E 009°11'2 1.8
2016-Aug-20 22:33N 53°54' E 009°09'5 5.5
2016-Aug-20 21:33N 53°51' E 009°00'7 7.2
2016-Aug-20 20:33N 53°50' E 008°48'7 6.4
2016-Aug-20 19:32N 53°55' E 008°40'  
Track history (hours):
 
Tides and Currents Weather Stations Pressure Air Temp Water Temp Dewpoint Dewpoint Depression Visibility Wind Speed Wind Dir Waves Ship Positions

Pride

Last reported at 2016-Aug-30 19:12 UTC. Time now 2016-Sep-01 01:58 UTC.
Position N 59°35' E 022°59'.

Length 88 m; draft 5 m.

Type: Cargo ship. MMSI: 236166000.

Date/timePositionNaut miles runAvg speedWind from/ knotsBaromVisibWave heightAir tempDewpointWater temp
2016-Aug-30 19:12N 59°35' E 022°59'7 9.1
2016-Aug-30 18:24N 59°37' E 023°13'8 8.7
2016-Aug-30 17:32N 59°39' E 023°27'9 8.8
2016-Aug-30 16:33N 59°42' E 023°44'81 9.6
2016-Aug-30 08:06N 59°60' E 026°21'5 9.5
2016-Aug-30 07:32N 60°01' E 026°31'28 9.1
2016-Aug-30 04:27N 60°06' E 027°26'9 9.7
2016-Aug-30 03:34N 60°11' E 027°41'11 9.4
2016-Aug-30 02:22N 60°10' E 028°04'8 9.6
2016-Aug-30 01:33N 60°07' E 028°19'10 9.5
2016-Aug-30 00:33N 60°03' E 028°36'10 9.6
2016-Aug-29 23:30N 60°03' E 028°56'22 9.4
2016-Aug-29 21:10N 59°60' E 029°39'5 8.8
2016-Aug-29 20:33N 59°58' E 029°49'9 9.2
2016-Aug-29 19:34N 59°54' E 030°06'4 3.4
2016-Aug-29 18:32N 59°53' E 030°13'0 0.0
2016-Aug-29 17:33N 59°53' E 030°13'0 0.0
2016-Aug-29 16:33N 59°53' E 030°13'0 0.0
2016-Aug-29 15:30N 59°53' E 030°13'0 0.0
2016-Aug-29 14:28N 59°53' E 030°13'0 0.0
2016-Aug-29 13:32N 59°53' E 030°13'0 0.0
2016-Aug-29 12:31N 59°53' E 030°13'0 0.0
2016-Aug-29 11:33N 59°53' E 030°13'0 0.0
2016-Aug-29 10:31N 59°53' E 030°13'0 0.0
2016-Aug-29 09:33N 59°53' E 030°13'0 0.0
2016-Aug-29 08:31N 59°53' E 030°13'0 0.0
2016-Aug-29 07:32N 59°53' E 030°13'0 0.0
2016-Aug-29 06:31N 59°53' E 030°13'0 0.0
2016-Aug-29 05:33N 59°53' E 030°13'0 0.0
2016-Aug-29 04:32N 59°53' E 030°13'0 0.0
2016-Aug-29 03:32N 59°53' E 030°13'0 0.0
2016-Aug-29 02:33N 59°53' E 030°13'0 0.0
2016-Aug-29 01:33N 59°53' E 030°13'0 0.0
2016-Aug-29 00:31N 59°53' E 030°13'0 0.0
2016-Aug-28 23:32N 59°53' E 030°13'0 0.0
2016-Aug-28 22:32N 59°53' E 030°13'0 0.0
2016-Aug-28 21:33N 59°53' E 030°13'0 0.0
2016-Aug-28 20:30N 59°53' E 030°13'0 0.0
2016-Aug-28 19:33N 59°53' E 030°13'0 0.0
2016-Aug-28 18:32N 59°53' E 030°13'0 0.0
2016-Aug-28 17:28N 59°53' E 030°13'0 0.0
2016-Aug-28 16:30N 59°53' E 030°13'0 0.0
2016-Aug-28 15:29N 59°53' E 030°13'0 0.0
2016-Aug-28 14:30N 59°53' E 030°13'0 0.0
2016-Aug-28 13:29N 59°53' E 030°13'0 0.0
2016-Aug-28 12:32N 59°53' E 030°13'0 0.0
2016-Aug-28 11:31N 59°53' E 030°13'0 0.0
2016-Aug-28 10:32N 59°53' E 030°13'0 0.0
2016-Aug-28 09:28N 59°53' E 030°13'0 0.0
2016-Aug-28 08:26N 59°53' E 030°13'0 0.0
2016-Aug-28 07:28N 59°53' E 030°13'0 0.0
2016-Aug-28 06:26N 59°53' E 030°13'0 0.0
2016-Aug-28 05:27N 59°53' E 030°13'0 0.0
2016-Aug-28 04:33N 59°53' E 030°13'0 0.0
2016-Aug-28 03:33N 59°53' E 030°13'0 0.0
2016-Aug-28 02:32N 59°53' E 030°13'0 0.0
2016-Aug-28 01:32N 59°53' E 030°13'0 0.0
2016-Aug-28 00:32N 59°53' E 030°13'0 0.0
2016-Aug-27 23:32N 59°53' E 030°13'0 0.0
2016-Aug-27 22:32N 59°53' E 030°13'0 0.0
2016-Aug-27 21:33N 59°53' E 030°13'0 0.0
2016-Aug-27 20:33N 59°53' E 030°13'0 0.0
2016-Aug-27 19:33N 59°53' E 030°13'0 0.0
2016-Aug-27 18:33N 59°53' E 030°13'0 0.0
2016-Aug-27 17:33N 59°53' E 030°13'0 0.0
2016-Aug-27 16:32N 59°53' E 030°13'0 0.0
2016-Aug-27 15:32N 59°53' E 030°13'4 4.4
2016-Aug-27 14:33N 59°54' E 030°04'10 9.8
2016-Aug-27 13:32N 59°59' E 029°46'20 2.3
2016-Aug-27 04:33N 60°02' E 029°06'9 8.7
2016-Aug-27 03:33N 60°02' E 028°49'9 8.7
2016-Aug-27 02:33N 60°02' E 028°31'8 8.0
2016-Aug-27 01:33N 60°06' E 028°17'8 8.2
2016-Aug-27 00:33N 60°09' E 028°02'8 8.3
2016-Aug-26 23:33N 60°10' E 027°45'9 9.1
2016-Aug-26 22:33N 60°06' E 027°30'9 8.9
2016-Aug-26 21:33N 60°01' E 027°14'10 8.2
2016-Aug-26 20:20N 59°58' E 026°55'7 8.6
2016-Aug-26 19:30N 59°59' E 026°41'12 8.4
2016-Aug-26 18:08N 59°57' E 026°18'51 9.1
2016-Aug-26 12:31N 59°45' E 024°39'19 8.9
2016-Aug-26 10:21N 59°40' E 024°03'7 8.7
2016-Aug-26 09:34N 59°38' E 023°50'9 9.0
2016-Aug-26 08:33N 59°34' E 023°33'214 8.6
2016-Aug-25 07:32N 56°22' E 020°36'9 9.4
2016-Aug-25 06:33N 56°12' E 020°37'18 9.2
2016-Aug-25 04:34N 55°55' E 020°45'10 9.9
2016-Aug-25 03:34N 55°47' E 020°56'7 7.5
2016-Aug-25 02:34N 55°43' E 021°07'0 0.0
2016-Aug-25 01:34N 55°43' E 021°07'0 0.0
2016-Aug-25 00:33N 55°43' E 021°07'0 0.0
2016-Aug-24 23:33N 55°43' E 021°07'0 0.0
2016-Aug-24 22:33N 55°43' E 021°07'0 0.0
2016-Aug-24 21:32N 55°43' E 021°07'0 0.0
2016-Aug-24 20:33N 55°43' E 021°07'0 0.0
2016-Aug-24 19:32N 55°43' E 021°07'0 0.0
2016-Aug-24 16:29N 55°43' E 021°07'0 0.0
2016-Aug-24 15:14N 55°43' E 021°07'0 0.0
2016-Aug-24 14:33N 55°43' E 021°07'75 5.4
2016-Aug-24 00:33N 55°37' E 018°54'9 9.6
2016-Aug-23 23:33N 55°37' E 018°38'11 9.5
2016-Aug-23 22:22N 55°35' E 018°18'8 9.8
2016-Aug-23 21:33N 55°34' E 018°04'1110.5
2016-Aug-23 20:33N 55°33' E 017°45'6110.0
2016-Aug-23 14:29N 55°27' E 015°58'910.0
2016-Aug-23 13:33N 55°26' E 015°42'1010.0
2016-Aug-23 12:34N 55°25' E 015°25'10 9.8
2016-Aug-23 11:34N 55°24' E 015°07'10 9.8
2016-Aug-23 10:34N 55°23' E 014°50'9 9.3
2016-Aug-23 09:33N 55°19' E 014°35'9 9.4
2016-Aug-23 08:33N 55°12' E 014°25'9 9.0
2016-Aug-23 07:33N 55°09' E 014°10'4010.0
2016-Aug-23 03:33N 55°14' E 013°00'10 9.6
2016-Aug-23 02:33N 55°17' E 012°44'7 7.5
2016-Aug-23 01:34N 55°24' E 012°39'9 9.3
2016-Aug-23 00:34N 55°33' E 012°42'9 9.2
2016-Aug-22 23:33N 55°42' E 012°41'9 9.1
2016-Aug-22 22:34N 55°51' E 012°41'9 9.2
2016-Aug-22 21:34N 55°60' E 012°38'7 7.3
2016-Aug-22 20:34N 56°06' E 012°32'9 9.1
2016-Aug-22 19:34N 56°11' E 012°18'1010.2
2016-Aug-22 18:33N 56°10' E 011°59'97 3.3
2016-Aug-21 13:10N 54°55' E 010°11'610.2
2016-Aug-21 12:32N 54°49' E 010°13'23 9.3
2016-Aug-21 10:06N 54°26' E 010°14'5 9.4
2016-Aug-21 09:33N 54°22' E 010°09'4 4.1
2016-Aug-21 08:32N 54°22' E 010°02'30 5.7
2016-Aug-21 03:15N 54°05' E 009°19'6 8.6
2016-Aug-21 02:33N 53°59' E 009°17'6 5.5
2016-Aug-21 01:29N 53°55' E 009°11'0 0.0
2016-Aug-21 00:29N 53°55' E 009°11'0 0.0
2016-Aug-20 23:32N 53°55' E 009°11'2 1.8
2016-Aug-20 22:33N 53°54' E 009°09'5 5.5
2016-Aug-20 21:33N 53°51' E 009°00'7 7.2
2016-Aug-20 20:33N 53°50' E 008°48'7 6.4
2016-Aug-20 19:32N 53°55' E 008°40'  

Dump ship's entire track history